PWSweather.com
Personal Weather Stations
Station Observations
KKYCRABO2
Cedar Creek Lake 840 Ky. Hwy. 39 N, Crab Orchard, KY 40419

Cedar Creek Lake 840 Ky. Hwy. 39 NCrab Orchard, KY 40419

Lat: 37.4736234544238, Lon: -84.5120286941528

Elevation: 952

Station Type: TYCON Power TP1080WC Pro

http://kbweather.net/

High Low Average
Temperature 73.9°F23.3°F 73.9°F23.3°F 73.9°F23.3°F
Dew Point 73.7°F23.2°F 73.7°F23.2°F 73.7°F23.2°F
Winds Calm Calm Calm Calm Calm Calm
Wind Gusts -- -- --
Humidity 99% 99% 99%
Pressure 29.71 in1006.10 in 29.71 in1006.10 in -
Precipitation 0.01 in0.30 in - -
Hour Temp Dew Point Humidity Winds Wind Gusts Pressure Precip Precip Rate Daily Precip Total
12:00 AM 71.4°F21.9°C 71.2°F21.8°C 99% 1.6 mph S2.6 kmh S 3.8 mph6.1 kmh 29.58 in1001.7 mb 0.00 in0.0 mm 0.00 in/hr0.0 mm/hr 0.00 in0.0 mm
12:05 AM 71.4°F21.9°C 71.2°F21.8°C 99% 1.6 mph S2.6 kmh S 3.8 mph6.1 kmh 29.58 in1001.7 mb 0.00 in0.0 mm 0.00 in/hr0.0 mm/hr 0.00 in0.0 mm
12:10 AM 71.4°F21.9°C 71.2°F21.8°C 99% 1.6 mph S2.6 kmh S 3.8 mph6.1 kmh 29.58 in1001.7 mb 0.00 in0.0 mm 0.00 in/hr0.0 mm/hr 0.00 in0.0 mm
12:15 AM 71.2°F21.8°C 71.0°F21.7°C 99% 2.2 mph SSW3.5 kmh SSW 4.5 mph7.2 kmh 29.58 in1001.7 mb 0.05 in1.3 mm 0.60 in/hr15.2 mm/hr 0.05 in1.3 mm
12:20 AM 71.1°F21.7°C 70.8°F21.6°C 99% 0.7 mph WSW1.1 kmh WSW 4.5 mph7.2 kmh 29.58 in1001.7 mb 0.07 in1.8 mm 0.24 in/hr6.1 mm/hr 0.07 in1.8 mm
12:25 AM 71.1°F21.7°C 70.8°F21.6°C 99% 1.6 mph W2.6 kmh W 6.9 mph11.1 kmh 29.58 in1001.7 mb 0.07 in1.8 mm 0.00 in/hr0.0 mm/hr 0.07 in1.8 mm
12:30 AM 71.1°F21.7°C 70.8°F21.6°C 99% 1.6 mph WSW2.6 kmh WSW 6.9 mph11.1 kmh 29.58 in1001.7 mb 0.09 in2.3 mm 0.24 in/hr6.1 mm/hr 0.09 in2.3 mm
12:35 AM 71.1°F21.7°C 70.8°F21.6°C 99% 0.7 mph SW1.1 kmh SW 5.4 mph8.7 kmh 29.58 in1001.7 mb 0.11 in2.8 mm 0.24 in/hr6.1 mm/hr 0.11 in2.8 mm
12:40 AM 71.1°F21.7°C 70.8°F21.6°C 99% 1.6 mph W2.6 kmh W 4.5 mph7.2 kmh 29.59 in1002.0 mb 0.15 in3.8 mm 0.48 in/hr12.2 mm/hr 0.15 in3.8 mm
12:45 AM 71.1°F21.7°C 70.8°F21.6°C 99% 0.7 mph W1.1 kmh W 4.5 mph7.2 kmh 29.59 in1002.0 mb 0.19 in4.8 mm 0.48 in/hr12.2 mm/hr 0.19 in4.8 mm
12:50 AM 71.1°F21.7°C 70.8°F21.6°C 99% 1.6 mph W2.6 kmh W 3.1 mph5.0 kmh 29.59 in1002.0 mb 0.24 in6.1 mm 0.60 in/hr15.2 mm/hr 0.24 in6.1 mm
12:55 AM 71.1°F21.7°C 70.8°F21.6°C 99% Calm Calm 3.1 mph5.0 kmh 29.59 in1002.0 mb 0.30 in7.6 mm 0.72 in/hr18.3 mm/hr 0.30 in7.6 mm
01:00 AM 70.9°F21.6°C 70.6°F21.4°C 99% Calm Calm 3.1 mph5.0 kmh 29.59 in1002.0 mb 0.31 in7.9 mm 0.01 in/hr0.3 mm/hr 0.31 in7.9 mm
01:05 AM 70.9°F21.6°C 70.6°F21.4°C 99% Calm Calm 2.2 mph3.5 kmh 29.59 in1002.0 mb 0.31 in7.9 mm 0.00 in/hr0.0 mm/hr 0.31 in7.9 mm
01:10 AM 70.7°F21.5°C 70.4°F21.3°C 99% Calm Calm 1.6 mph2.6 kmh 29.60 in1002.4 mb 0.31 in7.9 mm 0.00 in/hr0.0 mm/hr 0.31 in7.9 mm
01:15 AM 70.5°F21.4°C 70.3°F21.3°C 99% Calm Calm 1.6 mph2.6 kmh 29.60 in1002.4 mb 0.27 in6.9 mm 0.00 in/hr0.0 mm/hr 0.32 in8.1 mm
01:20 AM 70.5°F21.4°C 70.3°F21.3°C 99% Calm Calm 0.7 mph1.1 kmh 29.60 in1002.4 mb 0.26 in6.6 mm 0.00 in/hr0.0 mm/hr 0.33 in8.4 mm
01:25 AM 70.5°F21.4°C 70.3°F21.3°C 99% Calm Calm -- 29.61 in1002.7 mb 0.26 in6.6 mm 0.00 in/hr0.0 mm/hr 0.33 in8.4 mm
01:30 AM 70.3°F21.3°C 70.1°F21.2°C 99% Calm Calm -- 29.61 in1002.7 mb 0.25 in6.4 mm 0.00 in/hr0.0 mm/hr 0.34 in8.6 mm
01:35 AM 71.4°F21.9°C 71.2°F21.8°C 99% Calm Calm -- 29.61 in1002.7 mb 0.24 in6.1 mm 0.00 in/hr0.0 mm/hr 0.34 in8.6 mm
01:40 AM 70.3°F21.3°C 70.1°F21.2°C 99% Calm Calm 2.2 mph3.5 kmh 29.62 in1003.0 mb 0.20 in5.1 mm 0.00 in/hr0.0 mm/hr 0.35 in8.9 mm
01:45 AM 70.3°F21.3°C 70.1°F21.2°C 99% Calm Calm 2.2 mph3.5 kmh 29.62 in1003.0 mb 0.17 in4.3 mm 0.00 in/hr0.0 mm/hr 0.35 in8.9 mm
01:50 AM 70.3°F21.3°C 70.1°F21.2°C 99% 0.7 mph SE1.1 kmh SE 2.2 mph3.5 kmh 29.62 in1003.0 mb 0.12 in3.0 mm 0.00 in/hr0.0 mm/hr 0.35 in8.9 mm
01:55 AM 70.3°F21.3°C 70.1°F21.2°C 99% 0.7 mph SE1.1 kmh SE 2.2 mph3.5 kmh 29.62 in1003.0 mb 0.06 in1.5 mm 0.00 in/hr0.0 mm/hr 0.35 in8.9 mm
02:00 AM 70.2°F21.2°C 69.9°F21.1°C 99% 1.6 mph SE2.6 kmh SE 3.8 mph6.1 kmh 29.62 in1003.0 mb 0.05 in1.3 mm 0.00 in/hr0.0 mm/hr 0.35 in8.9 mm
02:05 AM 70.2°F21.2°C 69.9°F21.1°C 99% 1.6 mph SSE2.6 kmh SSE 3.8 mph6.1 kmh 29.62 in1003.0 mb 0.05 in1.3 mm 0.00 in/hr0.0 mm/hr 0.35 in8.9 mm
02:10 AM 70.2°F21.2°C 69.9°F21.1°C 99% Calm Calm 3.8 mph6.1 kmh 29.63 in1003.4 mb 0.05 in1.3 mm 0.00 in/hr0.0 mm/hr 0.35 in8.9 mm
02:15 AM 70.0°F21.1°C 69.7°F20.9°C 99% Calm Calm 3.8 mph6.1 kmh 29.63 in1003.4 mb 0.04 in1.0 mm 0.00 in/hr0.0 mm/hr 0.35 in8.9 mm
02:20 AM 70.0°F21.1°C 69.7°F20.9°C 99% Calm Calm -- 29.63 in1003.4 mb 0.02 in0.5 mm 0.00 in/hr0.0 mm/hr 0.35 in8.9 mm
02:25 AM 70.0°F21.1°C 69.7°F20.9°C 99% Calm Calm 1.6 mph2.6 kmh 29.63 in1003.4 mb 0.02 in0.5 mm 0.00 in/hr0.0 mm/hr 0.35 in8.9 mm
02:30 AM 70.0°F21.1°C 69.7°F20.9°C 99% Calm Calm 2.2 mph3.5 kmh 29.63 in1003.4 mb 0.01 in0.3 mm 0.00 in/hr0.0 mm/hr 0.35 in8.9 mm
02:35 AM 70.0°F21.1°C 69.7°F20.9°C 99% Calm Calm 2.2 mph3.5 kmh 29.63 in1003.4 mb 0.01 in0.3 mm 0.00 in/hr0.0 mm/hr 0.35 in8.9 mm
02:40 AM 69.8°F21.0°C 69.5°F20.8°C 99% Calm Calm 3.1 mph5.0 kmh 29.63 in1003.4 mb 0.00 in0.0 mm 0.00 in/hr0.0 mm/hr 0.35 in8.9 mm
02:45 AM 70.0°F21.1°C 69.7°F20.9°C 99% Calm Calm 3.1 mph5.0 kmh 29.64 in1003.7 mb 0.00 in0.0 mm 0.00 in/hr0.0 mm/hr 0.35 in8.9 mm
02:50 AM 70.0°F21.1°C 69.7°F20.9°C 99% Calm Calm 2.2 mph3.5 kmh 29.64 in1003.7 mb 0.00 in0.0 mm 0.00 in/hr0.0 mm/hr 0.35 in8.9 mm
02:55 AM 70.0°F21.1°C 69.7°F20.9°C 99% 1.6 mph SSE2.6 kmh SSE 3.1 mph5.0 kmh 29.64 in1003.7 mb 0.00 in0.0 mm 0.00 in/hr0.0 mm/hr 0.35 in8.9 mm
03:00 AM 70.0°F21.1°C 69.7°F20.9°C 99% 0.7 mph SSE1.1 kmh SSE 4.5 mph7.2 kmh 29.64 in1003.7 mb 0.00 in0.0 mm 0.00 in/hr0.0 mm/hr 0.35 in8.9 mm
03:05 AM 70.2°F21.2°C 69.9°F21.1°C 99% 1.6 mph S2.6 kmh S 5.4 mph8.7 kmh 29.64 in1003.7 mb 0.00 in0.0 mm 0.00 in/hr0.0 mm/hr 0.35 in8.9 mm
03:10 AM 70.2°F21.2°C 69.9°F21.1°C 99% 0.7 mph SW1.1 kmh SW 5.4 mph8.7 kmh 29.64 in1003.7 mb 0.00 in0.0 mm 0.00 in/hr0.0 mm/hr 0.35 in8.9 mm
03:15 AM 70.2°F21.2°C 69.9°F21.1°C 99% 0.7 mph SE1.1 kmh SE 3.8 mph6.1 kmh 29.64 in1003.7 mb 0.00 in0.0 mm 0.00 in/hr0.0 mm/hr 0.35 in8.9 mm
03:20 AM 70.2°F21.2°C 69.9°F21.1°C 99% 1.6 mph SSE2.6 kmh SSE 3.8 mph6.1 kmh 29.64 in1003.7 mb 0.00 in0.0 mm 0.00 in/hr0.0 mm/hr 0.35 in8.9 mm
03:25 AM 70.3°F21.3°C 70.1°F21.2°C 99% Calm Calm 3.8 mph6.1 kmh 29.64 in1003.7 mb 0.00 in0.0 mm 0.00 in/hr0.0 mm/hr 0.35 in8.9 mm
03:30 AM 70.3°F21.3°C 70.1°F21.2°C 99% 0.7 mph WSW1.1 kmh WSW 5.4 mph8.7 kmh 29.64 in1003.7 mb 0.00 in0.0 mm 0.00 in/hr0.0 mm/hr 0.35 in8.9 mm
03:35 AM 70.3°F21.3°C 70.1°F21.2°C 99% Calm Calm 5.4 mph8.7 kmh 29.64 in1003.7 mb 0.00 in0.0 mm 0.00 in/hr0.0 mm/hr 0.35 in8.9 mm
03:40 AM 70.3°F21.3°C 70.1°F21.2°C 99% 0.7 mph N1.1 kmh N 3.1 mph5.0 kmh 29.64 in1003.7 mb 0.00 in0.0 mm 0.00 in/hr0.0 mm/hr 0.35 in8.9 mm
03:45 AM 70.3°F21.3°C 70.1°F21.2°C 99% 0.7 mph WNW1.1 kmh WNW 6.9 mph11.1 kmh 29.65 in1004.1 mb 0.00 in0.0 mm 0.00 in/hr0.0 mm/hr 0.35 in8.9 mm
03:50 AM 70.3°F21.3°C 70.1°F21.2°C 99% Calm Calm 6.9 mph11.1 kmh 29.65 in1004.1 mb 0.00 in0.0 mm 0.00 in/hr0.0 mm/hr 0.35 in8.9 mm
03:55 AM 70.2°F21.2°C 69.9°F21.1°C 99% 0.7 mph SSE1.1 kmh SSE 3.8 mph6.1 kmh 29.65 in1004.1 mb 0.00 in0.0 mm 0.00 in/hr0.0 mm/hr 0.35 in8.9 mm
04:00 AM 70.3°F21.3°C 70.1°F21.2°C 99% Calm Calm 3.1 mph5.0 kmh 29.65 in1004.1 mb 0.00 in0.0 mm 0.00 in/hr0.0 mm/hr 0.35 in8.9 mm
04:05 AM 70.3°F21.3°C 70.1°F21.2°C 99% 0.7 mph NNE1.1 kmh NNE 3.1 mph5.0 kmh 29.65 in1004.1 mb 0.00 in0.0 mm 0.00 in/hr0.0 mm/hr 0.35 in8.9 mm
04:10 AM 70.2°F21.2°C 69.9°F21.1°C 99% Calm Calm 2.2 mph3.5 kmh 29.65 in1004.1 mb 0.00 in0.0 mm 0.00 in/hr0.0 mm/hr 0.35 in8.9 mm
04:15 AM 70.2°F21.2°C 69.9°F21.1°C 99% 1.6 mph NE2.6 kmh NE 3.8 mph6.1 kmh 29.65 in1004.1 mb 0.00 in0.0 mm 0.00 in/hr0.0 mm/hr 0.35 in8.9 mm
04:20 AM 70.2°F21.2°C 69.9°F21.1°C 99% 0.7 mph NE1.1 kmh NE 3.8 mph6.1 kmh 29.66 in1004.4 mb 0.00 in0.0 mm 0.00 in/hr0.0 mm/hr 0.35 in8.9 mm
04:25 AM 70.2°F21.2°C 69.9°F21.1°C 99% Calm Calm 3.8 mph6.1 kmh 29.66 in1004.4 mb 0.00 in0.0 mm 0.00 in/hr0.0 mm/hr 0.35 in8.9 mm
04:30 AM 70.2°F21.2°C 69.9°F21.1°C 99% Calm Calm 2.2 mph3.5 kmh 29.67 in1004.7 mb 0.00 in0.0 mm 0.00 in/hr0.0 mm/hr 0.35 in8.9 mm
04:35 AM 70.2°F21.2°C 69.9°F21.1°C 99% 0.7 mph SW1.1 kmh SW 51.0 mph82.1 kmh 29.67 in1004.7 mb 0.00 in0.0 mm 0.00 in/hr0.0 mm/hr 0.35 in8.9 mm
04:40 AM 70.2°F21.2°C 69.9°F21.1°C 99% Calm Calm 51.0 mph82.1 kmh 29.67 in1004.7 mb 0.00 in0.0 mm 0.00 in/hr0.0 mm/hr 0.35 in8.9 mm
04:45 AM 70.2°F21.2°C 69.9°F21.1°C 99% Calm Calm 51.0 mph82.1 kmh 29.67 in1004.7 mb 0.00 in0.0 mm 0.00 in/hr0.0 mm/hr 0.35 in8.9 mm
04:50 AM 70.2°F21.2°C 69.9°F21.1°C 99% Calm Calm 0.7 mph1.1 kmh 29.68 in1005.1 mb 0.00 in0.0 mm 0.00 in/hr0.0 mm/hr 0.35 in8.9 mm
04:55 AM 70.2°F21.2°C 69.9°F21.1°C 99% Calm Calm 1.6 mph2.6 kmh 29.68 in1005.1 mb 0.00 in0.0 mm 0.00 in/hr0.0 mm/hr 0.35 in8.9 mm
05:00 AM 70.0°F21.1°C 69.7°F20.9°C 99% Calm Calm 4.5 mph7.2 kmh 29.68 in1005.1 mb 0.00 in0.0 mm 0.00 in/hr0.0 mm/hr 0.35 in8.9 mm
05:05 AM 70.2°F21.2°C 69.9°F21.1°C 99% Calm Calm 4.5 mph7.2 kmh 29.68 in1005.1 mb 0.00 in0.0 mm 0.00 in/hr0.0 mm/hr 0.35 in8.9 mm
05:10 AM 70.2°F21.2°C 69.9°F21.1°C 99% Calm Calm 0.7 mph1.1 kmh 29.69 in1005.4 mb 0.00 in0.0 mm 0.00 in/hr0.0 mm/hr 0.35 in8.9 mm
05:15 AM 70.2°F21.2°C 69.9°F21.1°C 99% Calm Calm 0.7 mph1.1 kmh 29.69 in1005.4 mb 0.00 in0.0 mm 0.00 in/hr0.0 mm/hr 0.35 in8.9 mm
05:20 AM 70.2°F21.2°C 69.9°F21.1°C 99% 1.6 mph N2.6 kmh N 3.1 mph5.0 kmh 29.69 in1005.4 mb 0.00 in0.0 mm 0.00 in/hr0.0 mm/hr 0.35 in8.9 mm
05:25 AM 70.2°F21.2°C 69.9°F21.1°C 99% Calm Calm 3.1 mph5.0 kmh 29.70 in1005.8 mb 0.00 in0.0 mm 0.00 in/hr0.0 mm/hr 0.26 in6.6 mm
05:30 AM 70.2°F21.2°C 69.9°F21.1°C 99% Calm Calm 3.1 mph5.0 kmh 29.70 in1005.8 mb 0.00 in0.0 mm 0.00 in/hr0.0 mm/hr 0.35 in8.9 mm
05:35 AM 70.2°F21.2°C 69.9°F21.1°C 99% Calm Calm 3.1 mph5.0 kmh 29.70 in1005.8 mb 0.00 in0.0 mm 0.00 in/hr0.0 mm/hr 0.35 in8.9 mm
05:40 AM 70.0°F21.1°C 69.7°F20.9°C 99% Calm Calm 1.6 mph2.6 kmh 29.70 in1005.8 mb 0.00 in0.0 mm 0.00 in/hr0.0 mm/hr 0.35 in8.9 mm
05:45 AM 70.2°F21.2°C 69.9°F21.1°C 99% Calm Calm 1.6 mph2.6 kmh 29.70 in1005.8 mb 0.00 in0.0 mm 0.00 in/hr0.0 mm/hr 0.35 in8.9 mm
05:50 AM 70.2°F21.2°C 69.9°F21.1°C 99% Calm Calm 1.6 mph2.6 kmh 29.70 in1005.8 mb 0.00 in0.0 mm 0.00 in/hr0.0 mm/hr 0.35 in8.9 mm
05:55 AM 116.1°F46.7°C 116.0°F46.7°C 99% Calm Calm 2.2 mph3.5 kmh 29.70 in1005.8 mb 0.00 in0.0 mm 0.00 in/hr0.0 mm/hr 0.35 in8.9 mm
06:00 AM 70.0°F21.1°C 69.7°F20.9°C 99% Calm Calm 3.1 mph5.0 kmh 29.71 in1006.1 mb 0.00 in0.0 mm 0.00 in/hr0.0 mm/hr 0.35 in8.9 mm
06:05 AM 70.0°F21.1°C 69.7°F20.9°C 99% Calm Calm 3.1 mph5.0 kmh 29.71 in1006.1 mb 0.00 in0.0 mm 0.00 in/hr0.0 mm/hr 0.35 in8.9 mm
06:10 AM 70.0°F21.1°C 69.7°F20.9°C 99% Calm Calm 2.2 mph3.5 kmh 29.71 in1006.1 mb 0.00 in0.0 mm 0.00 in/hr0.0 mm/hr 0.35 in8.9 mm
06:15 AM 70.0°F21.1°C 69.7°F20.9°C 99% 0.7 mph SW1.1 kmh SW 2.2 mph3.5 kmh 29.71 in1006.1 mb 0.00 in0.0 mm 0.00 in/hr0.0 mm/hr 0.35 in8.9 mm
06:20 AM 70.0°F21.1°C 69.7°F20.9°C 99% 0.7 mph SW1.1 kmh SW 1.6 mph2.6 kmh 29.72 in1006.4 mb 0.00 in0.0 mm 0.00 in/hr0.0 mm/hr 0.35 in8.9 mm
06:25 AM 70.0°F21.1°C 69.7°F20.9°C 99% 0.7 mph SW1.1 kmh SW 1.6 mph2.6 kmh 29.72 in1006.4 mb 0.09 in2.3 mm 1.08 in/hr27.4 mm/hr 0.35 in8.9 mm
06:30 AM 70.0°F21.1°C 69.7°F20.9°C 99% 0.7 mph SW1.1 kmh SW 1.6 mph2.6 kmh 29.72 in1006.4 mb 0.00 in0.0 mm 0.00 in/hr0.0 mm/hr 0.35 in8.9 mm
06:35 AM 70.0°F21.1°C 69.7°F20.9°C 99% Calm Calm -- 29.72 in1006.4 mb 0.02 in0.5 mm 0.24 in/hr6.1 mm/hr 0.38 in9.7 mm
06:40 AM 70.0°F21.1°C 69.7°F20.9°C 99% Calm Calm 0.7 mph1.1 kmh 29.72 in1006.4 mb 0.00 in0.0 mm 0.00 in/hr0.0 mm/hr 0.35 in8.9 mm
06:45 AM 70.0°F21.1°C 69.7°F20.9°C 99% Calm Calm 0.7 mph1.1 kmh 29.72 in1006.4 mb 0.00 in0.0 mm 0.00 in/hr0.0 mm/hr 0.35 in8.9 mm
06:50 AM 70.0°F21.1°C 69.7°F20.9°C 99% Calm Calm 0.7 mph1.1 kmh 29.73 in1006.8 mb 0.00 in0.0 mm 0.00 in/hr0.0 mm/hr 0.35 in8.9 mm
06:55 AM 70.0°F21.1°C 69.7°F20.9°C 99% Calm Calm 2.2 mph3.5 kmh 29.73 in1006.8 mb 0.00 in0.0 mm 0.00 in/hr0.0 mm/hr 0.35 in8.9 mm
07:00 AM 70.0°F21.1°C 69.7°F20.9°C 99% Calm Calm 2.2 mph3.5 kmh 29.72 in1006.4 mb 0.00 in0.0 mm 0.00 in/hr0.0 mm/hr 0.35 in8.9 mm
07:05 AM 70.0°F21.1°C 69.7°F20.9°C 99% Calm Calm 2.2 mph3.5 kmh 29.73 in1006.8 mb 0.00 in0.0 mm 0.00 in/hr0.0 mm/hr 0.35 in8.9 mm
07:10 AM 70.0°F21.1°C 11.0°F-11.7°C 10% Calm Calm 1.6 mph2.6 kmh 29.73 in1006.8 mb 0.00 in0.0 mm 0.00 in/hr0.0 mm/hr 0.35 in8.9 mm
07:15 AM 70.0°F21.1°C 11.0°F-11.7°C 10% Calm Calm 1.6 mph2.6 kmh 29.73 in1006.8 mb 0.00 in0.0 mm 0.00 in/hr0.0 mm/hr 0.35 in8.9 mm
07:20 AM 70.0°F21.1°C 69.7°F20.9°C 99% Calm Calm 0.7 mph1.1 kmh 29.73 in1006.8 mb 0.00 in0.0 mm 0.00 in/hr0.0 mm/hr 0.35 in8.9 mm
07:25 AM 69.8°F21.0°C 69.5°F20.8°C 99% 0.7 mph N1.1 kmh N 2.2 mph3.5 kmh 29.73 in1006.8 mb 0.00 in0.0 mm 0.00 in/hr0.0 mm/hr 0.35 in8.9 mm
07:30 AM 69.8°F21.0°C 69.5°F20.8°C 99% 0.7 mph S1.1 kmh S 2.2 mph3.5 kmh 29.73 in1006.8 mb 0.00 in0.0 mm 0.00 in/hr0.0 mm/hr 0.35 in8.9 mm
07:35 AM 69.8°F21.0°C 69.5°F20.8°C 99% 0.7 mph S1.1 kmh S 2.2 mph3.5 kmh 29.73 in1006.8 mb 0.00 in0.0 mm 0.00 in/hr0.0 mm/hr 0.35 in8.9 mm
07:40 AM 69.8°F21.0°C 69.5°F20.8°C 99% 0.7 mph S1.1 kmh S 2.2 mph3.5 kmh 29.73 in1006.8 mb 0.00 in0.0 mm 0.00 in/hr0.0 mm/hr 0.35 in8.9 mm
07:45 AM 69.8°F21.0°C 69.5°F20.8°C 99% Calm Calm 1.6 mph2.6 kmh 29.73 in1006.8 mb 0.00 in0.0 mm 0.00 in/hr0.0 mm/hr 0.35 in8.9 mm
07:50 AM 69.8°F21.0°C 69.5°F20.8°C 99% Calm Calm 1.6 mph2.6 kmh 29.73 in1006.8 mb 0.00 in0.0 mm 0.00 in/hr0.0 mm/hr 0.35 in8.9 mm
07:55 AM 70.0°F21.1°C 69.7°F20.9°C 99% 0.7 mph ENE1.1 kmh ENE 1.6 mph2.6 kmh 29.73 in1006.8 mb 0.00 in0.0 mm 0.00 in/hr0.0 mm/hr 0.35 in8.9 mm
08:00 AM 70.0°F21.1°C 69.7°F20.9°C 99% Calm Calm 1.6 mph2.6 kmh 29.74 in1007.1 mb 0.00 in0.0 mm 0.00 in/hr0.0 mm/hr 0.35 in8.9 mm
08:05 AM 70.0°F21.1°C 69.7°F20.9°C 99% Calm Calm 98.9 mph159.2 kmh 29.74 in1007.1 mb 0.01 in0.3 mm 0.12 in/hr3.0 mm/hr 0.37 in9.4 mm
08:10 AM 70.0°F21.1°C 69.7°F20.9°C 99% Calm Calm 98.9 mph159.2 kmh 29.74 in1007.1 mb 0.01 in0.3 mm 0.00 in/hr0.0 mm/hr 0.37 in9.4 mm
08:15 AM 70.0°F21.1°C 69.7°F20.9°C 99% Calm Calm 0.7 mph1.1 kmh 29.74 in1007.1 mb 0.02 in0.5 mm 0.12 in/hr3.0 mm/hr 0.38 in9.7 mm
08:20 AM 69.8°F21.0°C 69.5°F20.8°C 99% Calm Calm 1.6 mph2.6 kmh 29.74 in1007.1 mb 0.02 in0.5 mm 0.00 in/hr0.0 mm/hr 0.38 in9.7 mm
08:25 AM 69.8°F21.0°C 69.5°F20.8°C 99% Calm Calm 1.6 mph2.6 kmh 29.74 in1007.1 mb 0.04 in1.0 mm 0.24 in/hr6.1 mm/hr 0.39 in9.9 mm
08:30 AM 70.0°F21.1°C 69.7°F20.9°C 99% 24.4 mph NE39.3 kmh NE 1.6 mph2.6 kmh 29.74 in1007.1 mb 0.05 in1.3 mm 0.12 in/hr3.0 mm/hr 0.40 in10.2 mm
08:35 AM 70.0°F21.1°C 69.7°F20.9°C 99% Calm Calm 1.6 mph2.6 kmh 29.74 in1007.1 mb 0.05 in1.3 mm 0.00 in/hr0.0 mm/hr 0.40 in10.2 mm
08:40 AM 70.0°F21.1°C 69.7°F20.9°C 99% Calm Calm 1.6 mph2.6 kmh 29.74 in1007.1 mb 0.06 in1.5 mm 0.12 in/hr3.0 mm/hr 0.41 in10.4 mm
08:45 AM 69.8°F21.0°C 69.5°F20.8°C 99% Calm Calm 2.2 mph3.5 kmh 29.74 in1007.1 mb 0.08 in2.0 mm 0.24 in/hr6.1 mm/hr 0.44 in11.2 mm
08:50 AM 69.8°F21.0°C 69.5°F20.8°C 99% Calm Calm 5.4 mph8.7 kmh 29.74 in1007.1 mb 0.09 in2.3 mm 0.12 in/hr3.0 mm/hr 0.45 in11.4 mm
08:55 AM 69.8°F21.0°C 69.5°F20.8°C 99% Calm Calm 5.4 mph8.7 kmh 29.74 in1007.1 mb 0.12 in3.0 mm 0.36 in/hr9.1 mm/hr 0.47 in11.9 mm
09:00 AM 69.8°F21.0°C 69.5°F20.8°C 99% Calm Calm 2.2 mph3.5 kmh 29.74 in1007.1 mb 0.12 in3.0 mm 0.00 in/hr0.0 mm/hr 0.47 in11.9 mm
09:05 AM 69.6°F20.9°C 69.4°F20.8°C 99% Calm Calm 3.1 mph5.0 kmh 29.74 in1007.1 mb 0.13 in3.3 mm 0.12 in/hr3.0 mm/hr 0.50 in12.7 mm
09:10 AM 69.8°F21.0°C 69.5°F20.8°C 99% 1.6 mph S2.6 kmh S 3.1 mph5.0 kmh 29.74 in1007.1 mb 0.15 in3.8 mm 0.24 in/hr6.1 mm/hr 0.52 in13.2 mm
09:15 AM 69.8°F21.0°C 69.5°F20.8°C 99% 1.6 mph S2.6 kmh S 3.1 mph5.0 kmh 29.74 in1007.1 mb 0.14 in3.6 mm 0.00 in/hr0.0 mm/hr 0.52 in13.2 mm
09:20 AM 69.8°F21.0°C 69.5°F20.8°C 99% Calm Calm 3.1 mph5.0 kmh 29.74 in1007.1 mb 0.18 in4.6 mm 0.48 in/hr12.2 mm/hr 0.56 in14.2 mm
09:25 AM 69.8°F21.0°C 69.5°F20.8°C 99% 0.7 mph N1.1 kmh N 4.5 mph7.2 kmh 29.74 in1007.1 mb 0.19 in4.8 mm 0.12 in/hr3.0 mm/hr 0.58 in14.7 mm
09:30 AM 69.8°F21.0°C 69.5°F20.8°C 99% 1.6 mph S2.6 kmh S 4.5 mph7.2 kmh 29.74 in1007.1 mb 0.24 in6.1 mm 0.60 in/hr15.2 mm/hr 0.64 in16.3 mm
09:35 AM 70.0°F21.1°C 69.7°F20.9°C 99% 0.7 mph SSW1.1 kmh SSW 4.5 mph7.2 kmh 29.74 in1007.1 mb 0.22 in5.6 mm 0.00 in/hr0.0 mm/hr 0.64 in16.3 mm
09:40 AM 69.6°F20.9°C 69.4°F20.8°C 99% 0.7 mph SW1.1 kmh SW 3.8 mph6.1 kmh 29.74 in1007.1 mb 0.28 in7.1 mm 0.72 in/hr18.3 mm/hr 0.70 in17.8 mm
09:45 AM 69.8°F21.0°C 69.5°F20.8°C 99% Calm Calm 3.8 mph6.1 kmh 29.73 in1006.8 mb 0.27 in6.9 mm 0.00 in/hr0.0 mm/hr 0.71 in18.0 mm
09:50 AM 69.8°F21.0°C 69.5°F20.8°C 99% Calm Calm 3.8 mph6.1 kmh 29.73 in1006.8 mb 0.27 in6.9 mm 0.00 in/hr0.0 mm/hr 0.72 in18.3 mm
09:55 AM 69.8°F21.0°C 69.5°F20.8°C 99% 0.7 mph NW1.1 kmh NW 2.2 mph3.5 kmh 29.73 in1006.8 mb 0.27 in6.9 mm 0.00 in/hr0.0 mm/hr 0.74 in18.8 mm
10:00 AM 70.0°F21.1°C 69.7°F20.9°C 99% Calm Calm 2.2 mph3.5 kmh 29.73 in1006.8 mb 0.27 in6.9 mm 0.00 in/hr0.0 mm/hr 0.76 in19.3 mm
10:05 AM 70.2°F21.2°C 69.9°F21.1°C 99% Calm Calm 2.2 mph3.5 kmh 29.73 in1006.8 mb 0.27 in6.9 mm 0.00 in/hr0.0 mm/hr 0.77 in19.6 mm
10:10 AM 70.5°F21.4°C 70.3°F21.3°C 99% Calm Calm 3.1 mph5.0 kmh 29.73 in1006.8 mb 0.25 in6.4 mm 0.00 in/hr0.0 mm/hr 0.77 in19.6 mm
10:15 AM 70.7°F21.5°C 70.4°F21.3°C 99% Calm Calm 3.1 mph5.0 kmh 29.73 in1006.8 mb 0.26 in6.6 mm 0.12 in/hr3.0 mm/hr 0.78 in19.8 mm
10:20 AM 70.7°F21.5°C 70.4°F21.3°C 99% Calm Calm 2.2 mph3.5 kmh 29.73 in1006.8 mb 0.24 in6.1 mm 0.00 in/hr0.0 mm/hr 0.78 in19.8 mm
10:25 AM 70.7°F21.5°C 70.4°F21.3°C 99% Calm Calm 1.6 mph2.6 kmh 29.73 in1006.8 mb 0.21 in5.3 mm 0.00 in/hr0.0 mm/hr 0.78 in19.8 mm
10:30 AM 70.7°F21.5°C 70.4°F21.3°C 99% 1.6 mph E2.6 kmh E 3.8 mph6.1 kmh 29.73 in1006.8 mb 0.17 in4.3 mm 0.00 in/hr0.0 mm/hr 0.79 in20.1 mm
10:35 AM 70.7°F21.5°C 70.4°F21.3°C 99% Calm Calm 3.8 mph6.1 kmh 29.73 in1006.8 mb 0.17 in4.3 mm 0.00 in/hr0.0 mm/hr 0.79 in20.1 mm
10:40 AM 71.2°F21.8°C 71.0°F21.7°C 99% Calm Calm 3.8 mph6.1 kmh 29.73 in1006.8 mb 0.11 in2.8 mm 0.00 in/hr0.0 mm/hr 0.80 in20.3 mm
10:45 AM 71.4°F21.9°C 71.2°F21.8°C 99% Calm Calm 2.2 mph3.5 kmh 29.73 in1006.8 mb 0.11 in2.8 mm 0.00 in/hr0.0 mm/hr 0.80 in20.3 mm
10:50 AM 71.6°F22.0°C 71.3°F21.8°C 99% Calm Calm 2.2 mph3.5 kmh 29.73 in1006.8 mb 0.11 in2.8 mm 0.00 in/hr0.0 mm/hr 0.81 in20.6 mm
10:55 AM 71.8°F22.1°C 71.5°F21.9°C 99% Calm Calm 2.2 mph3.5 kmh 29.72 in1006.4 mb 0.08 in2.0 mm 0.00 in/hr0.0 mm/hr 0.81 in20.6 mm
11:00 AM 71.8°F22.1°C 71.5°F21.9°C 99% Calm Calm 1.6 mph2.6 kmh 29.73 in1006.8 mb 0.07 in1.8 mm 0.00 in/hr0.0 mm/hr 0.81 in20.6 mm
11:05 AM 71.8°F22.1°C 71.5°F21.9°C 99% Calm Calm 1.6 mph2.6 kmh 29.73 in1006.8 mb 0.07 in1.8 mm 0.00 in/hr0.0 mm/hr 0.83 in21.1 mm
11:10 AM 71.6°F22.0°C 71.3°F21.8°C 99% Calm Calm 3.1 mph5.0 kmh 29.73 in1006.8 mb 0.07 in1.8 mm 0.00 in/hr0.0 mm/hr 0.83 in21.1 mm
11:15 AM 71.6°F22.0°C 71.3°F21.8°C 99% Calm Calm 3.1 mph5.0 kmh 29.73 in1006.8 mb 0.07 in1.8 mm 0.00 in/hr0.0 mm/hr 0.84 in21.3 mm
11:20 AM 71.8°F22.1°C 71.5°F21.9°C 99% 0.7 mph SE1.1 kmh SE 3.1 mph5.0 kmh 29.73 in1006.8 mb 0.06 in1.5 mm 0.00 in/hr0.0 mm/hr 0.84 in21.3 mm
11:25 AM 72.0°F22.2°C 71.7°F22.1°C 99% Calm Calm 3.1 mph5.0 kmh 29.72 in1006.4 mb 0.06 in1.5 mm 0.00 in/hr0.0 mm/hr 0.84 in21.3 mm
11:30 AM 72.3°F22.4°C 72.1°F22.3°C 99% Calm Calm 3.8 mph6.1 kmh 29.72 in1006.4 mb 0.05 in1.3 mm 0.00 in/hr0.0 mm/hr 0.84 in21.3 mm
11:35 AM 72.3°F22.4°C 72.1°F22.3°C 99% 1.6 mph SE2.6 kmh SE 3.8 mph6.1 kmh 29.72 in1006.4 mb 0.05 in1.3 mm 0.00 in/hr0.0 mm/hr 0.84 in21.3 mm
11:40 AM 72.0°F22.2°C 71.7°F22.1°C 99% 1.6 mph SE2.6 kmh SE 4.5 mph7.2 kmh 29.72 in1006.4 mb 0.05 in1.3 mm 0.00 in/hr0.0 mm/hr 0.85 in21.6 mm
11:45 AM 106.9°F41.6°C 38.9°F3.8°C 10% 0.7 mph SSE1.1 kmh SSE 4.5 mph7.2 kmh 29.72 in1006.4 mb 0.05 in1.3 mm 0.00 in/hr0.0 mm/hr 0.85 in21.6 mm
11:50 AM 72.5°F22.5°C 72.2°F22.3°C 99% 0.7 mph SE1.1 kmh SE 3.8 mph6.1 kmh 29.73 in1006.8 mb 0.05 in1.3 mm 0.00 in/hr0.0 mm/hr 0.86 in21.8 mm
11:55 AM 72.3°F22.4°C 72.1°F22.3°C 99% 0.7 mph ENE1.1 kmh ENE 3.1 mph5.0 kmh 29.73 in1006.8 mb 0.05 in1.3 mm 0.00 in/hr0.0 mm/hr 0.86 in21.8 mm
12:00 PM 72.7°F22.6°C 72.4°F22.4°C 99% Calm Calm 3.1 mph5.0 kmh 29.73 in1006.8 mb 0.05 in1.3 mm 0.00 in/hr0.0 mm/hr 0.86 in21.8 mm
12:05 PM 72.9°F22.7°C 72.6°F22.6°C 99% Calm Calm 2.2 mph3.5 kmh 29.72 in1006.4 mb 0.04 in1.0 mm 0.00 in/hr0.0 mm/hr 0.86 in21.8 mm
12:10 PM 72.9°F22.7°C 72.6°F22.6°C 99% Calm Calm 3.1 mph5.0 kmh 29.73 in1006.8 mb 0.04 in1.0 mm 0.00 in/hr0.0 mm/hr 0.86 in21.8 mm
12:15 PM 73.2°F22.9°C 73.0°F22.8°C 99% Calm Calm 3.1 mph5.0 kmh 29.73 in1006.8 mb 0.02 in0.5 mm 0.00 in/hr0.0 mm/hr 0.86 in21.8 mm
12:20 PM 73.4°F23.0°C 73.2°F22.9°C 99% Calm Calm 1.6 mph2.6 kmh 29.73 in1006.8 mb 0.02 in0.5 mm 0.00 in/hr0.0 mm/hr 0.86 in21.8 mm
12:25 PM 73.4°F23.0°C 73.2°F22.9°C 99% 0.7 mph E1.1 kmh E 2.2 mph3.5 kmh 29.73 in1006.8 mb 0.02 in0.5 mm 0.00 in/hr0.0 mm/hr 0.86 in21.8 mm
12:30 PM 73.0°F22.8°C 72.8°F22.7°C 99% 0.7 mph ENE1.1 kmh ENE 2.2 mph3.5 kmh 29.73 in1006.8 mb 0.02 in0.5 mm 0.00 in/hr0.0 mm/hr 0.86 in21.8 mm
12:35 PM 73.4°F23.0°C 73.2°F22.9°C 99% Calm Calm 2.2 mph3.5 kmh 29.73 in1006.8 mb 0.01 in0.3 mm 0.00 in/hr0.0 mm/hr 0.86 in21.8 mm
12:40 PM 73.8°F23.2°C 73.5°F23.1°C 99% Calm Calm 2.2 mph3.5 kmh 29.73 in1006.8 mb 0.01 in0.3 mm 0.00 in/hr0.0 mm/hr 0.86 in21.8 mm
12:45 PM 74.1°F23.4°C 73.9°F23.3°C 99% 1.6 mph W2.6 kmh W 3.8 mph6.1 kmh 29.73 in1006.8 mb 0.01 in0.3 mm 0.00 in/hr0.0 mm/hr 0.86 in21.8 mm
12:50 PM 73.9°F23.3°C 73.7°F23.2°C 99% Calm Calm 3.8 mph6.1 kmh 29.73 in1006.8 mb 0.00 in0.0 mm 0.00 in/hr0.0 mm/hr 0.86 in21.8 mm
12:55 PM 73.9°F23.3°C 73.7°F23.2°C 99% 0.7 mph SSW1.1 kmh SSW 3.8 mph6.1 kmh 29.73 in1006.8 mb 0.01 in0.3 mm 0.12 in/hr3.0 mm/hr 0.87 in22.1 mm
01:00 PM 73.9°F23.3°C 73.7°F23.2°C 99% Calm Calm 2.2 mph3.5 kmh 29.73 in1006.8 mb 0.01 in0.3 mm 0.00 in/hr0.0 mm/hr 0.87 in22.1 mm
01:05 PM 74.1°F23.4°C 73.9°F23.3°C 99% 0.7 mph SE1.1 kmh SE 3.1 mph5.0 kmh 29.73 in1006.8 mb 0.01 in0.3 mm 0.00 in/hr0.0 mm/hr 0.87 in22.1 mm
01:10 PM 74.3°F23.5°C 74.1°F23.4°C 99% Calm Calm 3.8 mph6.1 kmh 29.73 in1006.8 mb 0.01 in0.3 mm 0.00 in/hr0.0 mm/hr 0.87 in22.1 mm
01:15 PM 74.7°F23.7°C 74.4°F23.6°C 99% Calm Calm 3.8 mph6.1 kmh 29.73 in1006.8 mb 0.01 in0.3 mm 0.00 in/hr0.0 mm/hr 0.87 in22.1 mm
01:20 PM 74.7°F23.7°C 74.4°F23.6°C 99% Calm Calm 1.6 mph2.6 kmh 29.73 in1006.8 mb 0.01 in0.3 mm 0.00 in/hr0.0 mm/hr 0.87 in22.1 mm
01:25 PM 75.4°F24.1°C 75.1°F23.9°C 99% Calm Calm 2.2 mph3.5 kmh 29.73 in1006.8 mb 0.01 in0.3 mm 0.00 in/hr0.0 mm/hr 0.87 in22.1 mm
01:30 PM 75.6°F24.2°C 75.3°F24.1°C 99% Calm Calm 2.2 mph3.5 kmh 29.73 in1006.8 mb 0.01 in0.3 mm 0.00 in/hr0.0 mm/hr 0.87 in22.1 mm
01:35 PM 76.8°F24.9°C 76.6°F24.8°C 99% Calm Calm 0.7 mph1.1 kmh 29.73 in1006.8 mb 0.01 in0.3 mm 0.00 in/hr0.0 mm/hr 0.87 in22.1 mm
01:40 PM 77.0°F25.0°C 76.8°F24.9°C 99% Calm Calm 1.6 mph2.6 kmh 29.73 in1006.8 mb 0.01 in0.3 mm 0.00 in/hr0.0 mm/hr 0.87 in22.1 mm
01:45 PM 76.3°F24.6°C 76.0°F24.4°C 99% 0.7 mph NE1.1 kmh NE 3.8 mph6.1 kmh 29.73 in1006.8 mb 0.01 in0.3 mm 0.00 in/hr0.0 mm/hr 0.87 in22.1 mm
01:50 PM 75.7°F24.3°C 75.5°F24.2°C 99% Calm Calm 3.8 mph6.1 kmh 29.73 in1006.8 mb 0.01 in0.3 mm 0.00 in/hr0.0 mm/hr 0.87 in22.1 mm
01:55 PM 75.7°F24.3°C 75.5°F24.2°C 99% Calm Calm 2.2 mph3.5 kmh 29.73 in1006.8 mb 0.01 in0.3 mm 0.00 in/hr0.0 mm/hr 0.89 in22.6 mm
02:00 PM 75.4°F24.1°C 75.1°F23.9°C 99% Calm Calm 1.6 mph2.6 kmh 29.73 in1006.8 mb 0.01 in0.3 mm 0.00 in/hr0.0 mm/hr 0.89 in22.6 mm
02:05 PM 75.6°F24.2°C 75.3°F24.1°C 99% Calm Calm 1.6 mph2.6 kmh 29.73 in1006.8 mb 0.01 in0.3 mm 0.00 in/hr0.0 mm/hr 0.89 in22.6 mm
02:10 PM 75.4°F24.1°C 75.1°F23.9°C 99% Calm Calm 2.2 mph3.5 kmh 29.73 in1006.8 mb 0.04 in1.0 mm 0.36 in/hr9.1 mm/hr 0.91 in23.1 mm
02:15 PM 75.0°F23.9°C 74.8°F23.8°C 99% Calm Calm 2.2 mph3.5 kmh 29.73 in1006.8 mb 0.06 in1.5 mm 0.24 in/hr6.1 mm/hr 0.93 in23.6 mm
02:20 PM 74.8°F23.8°C 74.6°F23.7°C 99% Calm Calm 2.2 mph3.5 kmh 29.73 in1006.8 mb 0.06 in1.5 mm 0.00 in/hr0.0 mm/hr 0.93 in23.6 mm
02:25 PM 75.0°F23.9°C 74.8°F23.8°C 99% Calm Calm 2.2 mph3.5 kmh 29.73 in1006.8 mb 0.06 in1.5 mm 0.00 in/hr0.0 mm/hr 0.93 in23.6 mm
02:30 PM 75.9°F24.4°C 75.7°F24.3°C 99% Calm Calm 1.6 mph2.6 kmh 29.73 in1006.8 mb 0.06 in1.5 mm 0.00 in/hr0.0 mm/hr 0.93 in23.6 mm
02:35 PM 76.5°F24.7°C 76.2°F24.6°C 99% Calm Calm 1.6 mph2.6 kmh 29.73 in1006.8 mb 0.06 in1.5 mm 0.00 in/hr0.0 mm/hr 0.93 in23.6 mm
02:40 PM 76.6°F24.8°C 76.4°F24.7°C 99% Calm Calm 1.6 mph2.6 kmh 29.73 in1006.8 mb 0.06 in1.5 mm 0.00 in/hr0.0 mm/hr 0.93 in23.6 mm
02:45 PM 76.5°F24.7°C 76.2°F24.6°C 99% Calm Calm 1.6 mph2.6 kmh 29.73 in1006.8 mb 0.06 in1.5 mm 0.00 in/hr0.0 mm/hr 0.93 in23.6 mm
02:50 PM 76.5°F24.7°C 76.2°F24.6°C 99% Calm Calm 1.6 mph2.6 kmh 29.73 in1006.8 mb 0.05 in1.3 mm 0.00 in/hr0.0 mm/hr 0.93 in23.6 mm
02:55 PM 76.6°F24.8°C 76.4°F24.7°C 99% Calm Calm 1.6 mph2.6 kmh 29.73 in1006.8 mb 0.05 in1.3 mm 0.00 in/hr0.0 mm/hr 0.93 in23.6 mm
03:00 PM 76.8°F24.9°C 76.6°F24.8°C 99% Calm Calm -- 29.73 in1006.8 mb 0.05 in1.3 mm 0.00 in/hr0.0 mm/hr 0.93 in23.6 mm
03:05 PM 77.5°F25.3°C 77.3°F25.2°C 99% Calm Calm -- 29.73 in1006.8 mb 0.05 in1.3 mm 0.00 in/hr0.0 mm/hr 0.93 in23.6 mm
03:10 PM 77.9°F25.5°C 77.7°F25.4°C 99% Calm Calm -- 29.73 in1006.8 mb 0.02 in0.5 mm 0.00 in/hr0.0 mm/hr 0.93 in23.6 mm
03:15 PM 78.4°F25.8°C 78.2°F25.7°C 99% Calm Calm -- 29.73 in1006.8 mb 0.00 in0.0 mm 0.00 in/hr0.0 mm/hr 0.93 in23.6 mm
03:20 PM 79.2°F26.2°C 78.9°F26.1°C 99% Calm Calm 0.7 mph1.1 kmh 29.73 in1006.8 mb 0.00 in0.0 mm 0.00 in/hr0.0 mm/hr 0.93 in23.6 mm
03:25 PM 79.9°F26.6°C 79.6°F26.4°C 99% 0.7 mph N1.1 kmh N 3.8 mph6.1 kmh 29.73 in1006.8 mb 0.00 in0.0 mm 0.00 in/hr0.0 mm/hr 0.93 in23.6 mm
03:30 PM 80.4°F26.9°C 80.2°F26.8°C 99% Calm Calm 3.8 mph6.1 kmh 29.73 in1006.8 mb 0.00 in0.0 mm 0.00 in/hr0.0 mm/hr 0.93 in23.6 mm
03:35 PM 81.0°F27.2°C 80.7°F27.1°C 99% Calm Calm 2.2 mph3.5 kmh 29.73 in1006.8 mb 0.00 in0.0 mm 0.00 in/hr0.0 mm/hr 0.93 in23.6 mm
03:40 PM 81.0°F27.2°C 80.7°F27.1°C 99% Calm Calm 0.7 mph1.1 kmh 29.73 in1006.8 mb 0.00 in0.0 mm 0.00 in/hr0.0 mm/hr 0.93 in23.6 mm
03:45 PM 80.4°F26.9°C 80.2°F26.8°C 99% 0.7 mph NNE1.1 kmh NNE 3.1 mph5.0 kmh 29.72 in1006.4 mb 0.00 in0.0 mm 0.00 in/hr0.0 mm/hr 0.93 in23.6 mm
03:50 PM 80.1°F26.7°C 79.8°F26.6°C 99% 0.7 mph NE1.1 kmh NE 3.1 mph5.0 kmh 29.72 in1006.4 mb 0.00 in0.0 mm 0.00 in/hr0.0 mm/hr 0.93 in23.6 mm
03:55 PM 79.9°F26.6°C 79.6°F26.4°C 99% 0.7 mph NW1.1 kmh NW 3.1 mph5.0 kmh 29.72 in1006.4 mb 0.00 in0.0 mm 0.00 in/hr0.0 mm/hr 0.93 in23.6 mm
04:00 PM 79.7°F26.5°C 79.5°F26.4°C 99% Calm Calm 3.1 mph5.0 kmh 29.72 in1006.4 mb 0.00 in0.0 mm 0.00 in/hr0.0 mm/hr 0.93 in23.6 mm
04:05 PM 80.1°F26.7°C 79.8°F26.6°C 99% Calm Calm 3.1 mph5.0 kmh 29.72 in1006.4 mb 0.00 in0.0 mm 0.00 in/hr0.0 mm/hr 0.93 in23.6 mm
04:10 PM 81.5°F27.5°C 81.3°F27.4°C 99% 1.6 mph N2.6 kmh N 3.8 mph6.1 kmh 29.72 in1006.4 mb 0.00 in0.0 mm 0.00 in/hr0.0 mm/hr 0.93 in23.6 mm
04:15 PM 82.2°F27.9°C 82.0°F27.8°C 99% Calm Calm 3.8 mph6.1 kmh 29.72 in1006.4 mb 0.00 in0.0 mm 0.00 in/hr0.0 mm/hr 0.93 in23.6 mm
04:20 PM 82.6°F28.1°C 82.4°F28.0°C 99% Calm Calm 3.8 mph6.1 kmh 29.72 in1006.4 mb 0.00 in0.0 mm 0.00 in/hr0.0 mm/hr 0.93 in23.6 mm
04:25 PM 82.0°F27.8°C 81.8°F27.7°C 99% Calm Calm 2.2 mph3.5 kmh 29.71 in1006.1 mb 0.00 in0.0 mm 0.00 in/hr0.0 mm/hr 0.93 in23.6 mm
04:30 PM 81.7°F27.6°C 81.5°F27.5°C 99% Calm Calm 2.2 mph3.5 kmh 29.71 in1006.1 mb 0.00 in0.0 mm 0.00 in/hr0.0 mm/hr 0.93 in23.6 mm
04:35 PM 81.3°F27.4°C 81.1°F27.3°C 99% 0.7 mph NNE1.1 kmh NNE 3.8 mph6.1 kmh 29.71 in1006.1 mb 0.00 in0.0 mm 0.00 in/hr0.0 mm/hr 0.93 in23.6 mm
04:40 PM 81.5°F27.5°C 81.3°F27.4°C 99% Calm Calm 3.8 mph6.1 kmh 29.71 in1006.1 mb 0.00 in0.0 mm 0.00 in/hr0.0 mm/hr 0.93 in23.6 mm
04:45 PM 81.1°F27.3°C 80.9°F27.2°C 99% 0.7 mph N1.1 kmh N 3.1 mph5.0 kmh 29.71 in1006.1 mb 0.00 in0.0 mm 0.00 in/hr0.0 mm/hr 0.93 in23.6 mm
04:50 PM 80.8°F27.1°C 80.5°F26.9°C 99% Calm Calm 3.1 mph5.0 kmh 29.71 in1006.1 mb 0.00 in0.0 mm 0.00 in/hr0.0 mm/hr 0.93 in23.6 mm
04:55 PM 81.1°F27.3°C 80.9°F27.2°C 99% 0.7 mph N1.1 kmh N 3.1 mph5.0 kmh 29.70 in1005.8 mb 0.00 in0.0 mm 0.00 in/hr0.0 mm/hr 0.93 in23.6 mm
05:00 PM 82.4°F28.0°C 82.2°F27.9°C 99% Calm Calm 3.1 mph5.0 kmh 29.71 in1006.1 mb 0.00 in0.0 mm 0.00 in/hr0.0 mm/hr 0.93 in23.6 mm
05:05 PM 81.9°F27.7°C 81.6°F27.6°C 99% Calm Calm 3.1 mph5.0 kmh 29.70 in1005.8 mb 0.00 in0.0 mm 0.00 in/hr0.0 mm/hr 0.93 in23.6 mm
05:10 PM 81.1°F27.3°C 80.9°F27.2°C 99% Calm Calm 2.2 mph3.5 kmh 29.70 in1005.8 mb 0.00 in0.0 mm 0.00 in/hr0.0 mm/hr 0.93 in23.6 mm
05:15 PM 80.2°F26.8°C 80.0°F26.7°C 99% 2.2 mph ESE3.5 kmh ESE 5.4 mph8.7 kmh 29.70 in1005.8 mb 0.00 in0.0 mm 0.00 in/hr0.0 mm/hr 0.93 in23.6 mm
05:20 PM 80.2°F26.8°C 80.0°F26.7°C 99% 2.2 mph SE3.5 kmh SE 5.4 mph8.7 kmh 29.70 in1005.8 mb 0.00 in0.0 mm 0.00 in/hr0.0 mm/hr 0.93 in23.6 mm
05:25 PM 78.1°F25.6°C 77.8°F25.4°C 99% Calm Calm 5.4 mph8.7 kmh 29.70 in1005.8 mb 0.00 in0.0 mm 0.00 in/hr0.0 mm/hr 0.93 in23.6 mm
05:30 PM 78.1°F25.6°C 77.8°F25.4°C 99% Calm Calm 5.4 mph8.7 kmh 29.70 in1005.8 mb 0.00 in0.0 mm 0.00 in/hr0.0 mm/hr 0.93 in23.6 mm
05:35 PM 77.9°F25.5°C 77.7°F25.4°C 99% Calm Calm 0.7 mph1.1 kmh 29.70 in1005.8 mb 0.00 in0.0 mm 0.00 in/hr0.0 mm/hr 0.93 in23.6 mm
05:40 PM 78.6°F25.9°C 78.4°F25.8°C 99% Calm Calm 0.7 mph1.1 kmh 29.70 in1005.8 mb 0.00 in0.0 mm 0.00 in/hr0.0 mm/hr 0.93 in23.6 mm
05:45 PM 79.0°F26.1°C 78.7°F25.9°C 99% Calm Calm 0.7 mph1.1 kmh 29.70 in1005.8 mb 0.00 in0.0 mm 0.00 in/hr0.0 mm/hr 0.93 in23.6 mm
05:50 PM 79.0°F26.1°C 78.7°F25.9°C 99% Calm Calm 0.7 mph1.1 kmh 29.70 in1005.8 mb 0.00 in0.0 mm 0.00 in/hr0.0 mm/hr 0.93 in23.6 mm
05:55 PM 78.8°F26.0°C 78.6°F25.9°C 99% Calm Calm 0.7 mph1.1 kmh 29.70 in1005.8 mb 0.00 in0.0 mm 0.00 in/hr0.0 mm/hr 0.93 in23.6 mm
06:00 PM 78.8°F26.0°C 78.6°F25.9°C 99% Calm Calm 0.7 mph1.1 kmh 29.70 in1005.8 mb 0.00 in0.0 mm 0.00 in/hr0.0 mm/hr 0.93 in23.6 mm
06:05 PM 78.8°F26.0°C 78.6°F25.9°C 99% Calm Calm 0.7 mph1.1 kmh 29.70 in1005.8 mb 0.00 in0.0 mm 0.00 in/hr0.0 mm/hr 0.93 in23.6 mm
06:10 PM 78.1°F25.6°C 77.8°F25.4°C 99% Calm Calm 0.7 mph1.1 kmh 29.70 in1005.8 mb 0.00 in0.0 mm 0.00 in/hr0.0 mm/hr 0.93 in23.6 mm
06:15 PM 78.1°F25.6°C 77.8°F25.4°C 99% Calm Calm 0.7 mph1.1 kmh 29.70 in1005.8 mb 0.00 in0.0 mm 0.00 in/hr0.0 mm/hr 0.93 in23.6 mm
06:20 PM 77.5°F25.3°C 77.3°F25.2°C 99% 0.7 mph NE1.1 kmh NE 2.2 mph3.5 kmh 29.70 in1005.8 mb 0.00 in0.0 mm 0.00 in/hr0.0 mm/hr 0.93 in23.6 mm
06:25 PM 77.0°F25.0°C 76.8°F24.9°C 99% Calm Calm 2.2 mph3.5 kmh 29.70 in1005.8 mb 0.02 in0.5 mm 0.24 in/hr6.1 mm/hr 0.96 in24.4 mm
06:30 PM 75.9°F24.4°C 75.7°F24.3°C 99% Calm Calm 4.5 mph7.2 kmh 29.70 in1005.8 mb 0.09 in2.3 mm 0.84 in/hr21.3 mm/hr 1.03 in26.2 mm
06:35 PM 75.2°F24.0°C 75.0°F23.9°C 99% Calm Calm 4.5 mph7.2 kmh 29.70 in1005.8 mb 0.12 in3.0 mm 0.36 in/hr9.1 mm/hr 1.05 in26.7 mm
06:40 PM 74.8°F23.8°C 74.6°F23.7°C 99% Calm Calm 1.6 mph2.6 kmh 29.70 in1005.8 mb 0.12 in3.0 mm 0.00 in/hr0.0 mm/hr 1.05 in26.7 mm
06:45 PM 74.8°F23.8°C 74.6°F23.7°C 99% Calm Calm -- 29.70 in1005.8 mb 0.12 in3.0 mm 0.00 in/hr0.0 mm/hr 1.05 in26.7 mm
06:50 PM 75.0°F23.9°C 74.8°F23.8°C 99% Calm Calm -- 29.70 in1005.8 mb 0.12 in3.0 mm 0.00 in/hr0.0 mm/hr 1.05 in26.7 mm
06:55 PM 74.8°F23.8°C 74.6°F23.7°C 99% Calm Calm -- 29.70 in1005.8 mb 0.12 in3.0 mm 0.00 in/hr0.0 mm/hr 1.05 in26.7 mm
07:00 PM 74.7°F23.7°C 74.4°F23.6°C 99% Calm Calm -- 29.70 in1005.8 mb 0.12 in3.0 mm 0.00 in/hr0.0 mm/hr 1.05 in26.7 mm
07:05 PM 74.7°F23.7°C 74.4°F23.6°C 99% Calm Calm -- 29.70 in1005.8 mb 0.13 in3.3 mm 0.12 in/hr3.0 mm/hr 1.06 in26.9 mm
07:10 PM 74.5°F23.6°C 74.2°F23.4°C 99% Calm Calm -- 29.70 in1005.8 mb 0.13 in3.3 mm 0.00 in/hr0.0 mm/hr 1.06 in26.9 mm
07:15 PM 74.3°F23.5°C 74.1°F23.4°C 99% Calm Calm -- 29.71 in1006.1 mb 0.13 in3.3 mm 0.00 in/hr0.0 mm/hr 1.06 in26.9 mm
07:20 PM 74.3°F23.5°C 74.1°F23.4°C 99% Calm Calm -- 29.71 in1006.1 mb 0.05 in1.3 mm 0.00 in/hr0.0 mm/hr 1.35 in34.3 mm
07:25 PM 74.1°F23.4°C 73.9°F23.3°C 99% Calm Calm -- 29.71 in1006.1 mb 0.12 in3.0 mm 0.84 in/hr21.3 mm/hr 1.35 in34.3 mm
07:30 PM 74.1°F23.4°C 73.9°F23.3°C 99% Calm Calm -- 29.70 in1005.8 mb 0.05 in1.3 mm 0.00 in/hr0.0 mm/hr 1.35 in34.3 mm
07:35 PM 74.1°F23.4°C 73.9°F23.3°C 99% Calm Calm -- 29.71 in1006.1 mb 0.02 in0.5 mm 0.00 in/hr0.0 mm/hr 1.35 in34.3 mm
07:40 PM 74.1°F23.4°C 73.9°F23.3°C 99% Calm Calm -- 29.71 in1006.1 mb 0.02 in0.5 mm 0.00 in/hr0.0 mm/hr 1.35 in34.3 mm
07:45 PM 74.1°F23.4°C 73.9°F23.3°C 99% Calm Calm -- 29.71 in1006.1 mb 0.02 in0.5 mm 0.00 in/hr0.0 mm/hr 1.35 in34.3 mm
07:50 PM 74.1°F23.4°C 73.9°F23.3°C 99% Calm Calm -- 29.71 in1006.1 mb 0.02 in0.5 mm 0.00 in/hr0.0 mm/hr 1.35 in34.3 mm
07:55 PM 73.9°F23.3°C 73.7°F23.2°C 99% Calm Calm -- 29.71 in1006.1 mb 0.02 in0.5 mm 0.00 in/hr0.0 mm/hr 1.35 in34.3 mm